createdAt,value
2022-07-28T00:04:49.234Z,101365.34
2022-07-28T00:09:50.984Z,101372.28
2022-07-28T00:14:52.752Z,101372.16
2022-07-28T00:19:54.424Z,101380.88
2022-07-28T00:24:56.247Z,101368.59
2022-07-28T00:29:57.919Z,101371.22
2022-07-28T00:34:59.901Z,101377.25
2022-07-28T00:40:02.318Z,101372.00
2022-07-28T00:45:04.510Z,101364.88
2022-07-28T00:50:06.590Z,101373.59
2022-07-28T00:55:08.543Z,101377.84
2022-07-28T01:00:10.693Z,101389.09
2022-07-28T01:05:14.778Z,101388.94
2022-07-28T01:10:28.502Z,101388.75
2022-07-28T01:15:35.535Z,101384.19
2022-07-28T01:20:38.335Z,101388.50
2022-07-28T01:26:17.233Z,101391.97
2022-07-28T01:31:24.517Z,101397.00
2022-07-28T01:36:31.762Z,101389.88
2022-07-28T01:41:33.864Z,101380.22
2022-07-28T01:46:36.094Z,101387.09
2022-07-28T01:51:37.832Z,101381.88
2022-07-28T01:56:39.530Z,101382.63
2022-07-28T02:01:44.306Z,101372.16
2022-07-28T02:06:46.036Z,101377.41
2022-07-28T02:11:47.732Z,101364.31
2022-07-28T02:17:00.284Z,101367.72
2022-07-28T02:22:01.966Z,101367.66
2022-07-28T02:27:23.942Z,101366.78
2022-07-28T02:33:59.885Z,101375.56
2022-07-28T02:39:07.985Z,101378.19
2022-07-28T02:44:14.896Z,101376.41
2022-07-28T02:49:25.403Z,101376.16
2022-07-28T02:54:27.270Z,101382.81
2022-07-28T02:59:29.292Z,101379.38
2022-07-28T03:04:49.639Z,101386.34
2022-07-28T03:09:51.403Z,101383.75
2022-07-28T03:14:53.077Z,101388.19
2022-07-28T03:19:54.956Z,101397.63
2022-07-28T03:24:56.731Z,101398.44
2022-07-28T03:30:04.542Z,101405.28
2022-07-28T03:35:06.543Z,101408.75
2022-07-28T03:40:10.020Z,101406.88
2022-07-28T03:45:11.786Z,101409.44
2022-07-28T03:50:13.483Z,101411.19
2022-07-28T03:55:15.241Z,101414.75
2022-07-28T04:00:17.112Z,101422.38
2022-07-28T04:05:18.914Z,101412.72
2022-07-28T04:10:20.621Z,101411.81
2022-07-28T04:15:22.402Z,101410.19
2022-07-28T04:20:24.741Z,101402.38
2022-07-28T04:25:26.906Z,101414.66
2022-07-28T04:30:28.754Z,101412.25
2022-07-28T04:35:30.519Z,101409.94
2022-07-28T04:40:33.624Z,101408.44
2022-07-28T04:45:35.323Z,101421.56
2022-07-28T04:50:37.109Z,101417.19
2022-07-28T04:55:39.172Z,101412.84
2022-07-28T05:00:41.047Z,101419.94
2022-07-28T05:05:42.730Z,101414.88
2022-07-28T05:10:48.946Z,101419.44
2022-07-28T05:15:51.315Z,101425.63
2022-07-28T05:20:53.050Z,101424.88
2022-07-28T05:25:54.749Z,101428.47
2022-07-28T05:30:56.493Z,101429.59
2022-07-28T05:35:58.183Z,101425.47
2022-07-28T05:41:00.168Z,101430.91
2022-07-28T05:46:02.008Z,101432.00
2022-07-28T05:51:04.271Z,101433.03
2022-07-28T05:56:06.538Z,101440.03
2022-07-28T06:01:08.329Z,101437.47
2022-07-28T06:06:14.559Z,101442.91
2022-07-28T06:11:22.317Z,101447.50
2022-07-28T06:16:24.674Z,101454.53
2022-07-28T06:21:26.357Z,101445.84
2022-07-28T06:26:28.025Z,101455.56
2022-07-28T06:31:29.840Z,101455.69
2022-07-28T06:36:31.637Z,101461.88
2022-07-28T06:41:33.305Z,101457.56
2022-07-28T06:46:36.326Z,101454.97
2022-07-28T06:51:38.287Z,101457.66
2022-07-28T06:56:40.213Z,101460.28
2022-07-28T07:01:43.706Z,101450.66
2022-07-28T07:06:45.412Z,101454.19
2022-07-28T07:11:47.139Z,101455.09
2022-07-28T07:16:48.985Z,101455.06
2022-07-28T07:21:50.765Z,101449.81
2022-07-28T07:26:52.443Z,101448.94
2022-07-28T07:31:54.164Z,101443.69
2022-07-28T07:36:55.856Z,101454.19
2022-07-28T07:41:57.602Z,101439.28
2022-07-28T07:47:00.225Z,101437.53
2022-07-28T07:52:02.002Z,101432.28
2022-07-28T07:57:03.642Z,101441.03
2022-07-28T08:02:05.754Z,101439.25
2022-07-28T08:07:07.689Z,101439.25
2022-07-28T08:12:09.651Z,101436.63
2022-07-28T08:17:11.386Z,101429.56
2022-07-28T08:22:13.102Z,101430.44
2022-07-28T08:27:14.865Z,101434.81
2022-07-28T08:32:16.582Z,101419.84
2022-07-28T08:37:19.377Z,101425.03
2022-07-28T08:42:27.585Z,101413.59
2022-07-28T08:47:40.593Z,101418.84
2022-07-28T08:52:48.239Z,101415.25
2022-07-28T08:57:49.913Z,101412.56
2022-07-28T09:02:52.121Z,101409.84
2022-07-28T09:07:55.477Z,101406.31
2022-07-28T09:12:57.611Z,101403.63
2022-07-28T09:17:59.518Z,101414.16
2022-07-28T09:23:02.474Z,101407.00
2022-07-28T09:28:10.708Z,101415.63
2022-07-28T09:33:42.059Z,101410.25
2022-07-28T09:38:42.415Z,101402.25
2022-07-28T09:43:44.932Z,101404.75
2022-07-28T09:48:49.794Z,101400.97
2022-07-28T09:53:52.647Z,101409.69
2022-07-28T09:58:57.361Z,101403.66
2022-07-28T10:04:13.647Z,101399.28
2022-07-28T10:09:15.402Z,101401.00
2022-07-28T10:14:21.393Z,101401.66
2022-07-28T10:19:24.534Z,101389.16
2022-07-28T10:24:26.901Z,101383.78
2022-07-28T10:29:31.452Z,101383.44
2022-07-28T10:34:38.298Z,101377.91
2022-07-28T10:39:41.805Z,101372.13
2022-07-28T10:44:43.504Z,101356.00
2022-07-28T10:49:45.182Z,101360.69
2022-07-28T10:55:02.256Z,101349.88
2022-07-28T11:00:24.533Z,101355.78
2022-07-28T11:05:40.783Z,101352.28
2022-07-28T11:10:47.097Z,101337.00
2022-07-28T11:15:49.581Z,101338.03
2022-07-28T11:20:58.538Z,101333.69
2022-07-28T11:26:27.694Z,101332.03
2022-07-28T11:31:44.390Z,101326.59
2022-07-28T11:36:58.026Z,101322.72
2022-07-28T11:41:59.834Z,101309.28
2022-07-28T11:47:24.954Z,101306.31
2022-07-28T11:52:26.664Z,101304.22
2022-07-28T11:57:28.672Z,101302.72
2022-07-28T12:02:31.528Z,101288.31
2022-07-28T12:07:44.557Z,101287.94
2022-07-28T12:12:52.823Z,101279.00
2022-07-28T12:17:54.979Z,101279.06
2022-07-28T12:22:57.453Z,101268.53
2022-07-28T12:28:22.578Z,101272.81
2022-07-28T12:33:29.631Z,101272.84
2022-07-28T12:38:31.905Z,101261.50
2022-07-28T12:43:34.262Z,101251.28
2022-07-28T12:48:40.677Z,101264.16
2022-07-28T12:53:51.501Z,101255.47
2022-07-28T12:59:06.934Z,101260.00
2022-07-28T13:04:08.643Z,101247.13
2022-07-28T13:09:14.965Z,101244.44
2022-07-28T13:14:17.447Z,101238.50
2022-07-28T13:19:22.400Z,101241.69
2022-07-28T13:24:25.878Z,101227.91
2022-07-28T13:29:27.566Z,101230.38
2022-07-28T13:34:29.257Z,101219.91
2022-07-28T13:39:30.964Z,101224.88
2022-07-28T13:44:33.478Z,101211.28
2022-07-28T13:49:37.418Z,101217.25
2022-07-28T13:54:39.270Z,101209.38
2022-07-28T13:59:42.023Z,101206.00
2022-07-28T14:04:50.420Z,101197.19
2022-07-28T14:09:52.541Z,101192.44
2022-07-28T14:14:54.233Z,101190.47
2022-07-28T14:19:55.967Z,101180.97
2022-07-28T14:24:57.635Z,101170.75
2022-07-28T14:29:59.306Z,101174.78
2022-07-28T14:35:05.690Z,101177.25
2022-07-28T14:40:07.941Z,101176.78
2022-07-28T14:45:09.967Z,101169.75
2022-07-28T14:50:11.710Z,101168.44
2022-07-28T14:55:13.471Z,101166.44
2022-07-28T15:00:16.166Z,101160.50
2022-07-28T15:05:17.898Z,101156.13
2022-07-28T15:10:19.838Z,101162.66
2022-07-28T15:15:26.421Z,101152.06
2022-07-28T15:20:28.148Z,101152.19
2022-07-28T15:25:29.827Z,101148.13
2022-07-28T15:30:31.629Z,101142.72
2022-07-28T15:35:59.258Z,101144.53
2022-07-28T15:40:59.992Z,101148.72
2022-07-28T15:46:08.490Z,101152.75
2022-07-28T15:51:10.603Z,101143.19
2022-07-28T15:56:12.353Z,101134.31
2022-07-28T16:01:14.053Z,101133.75
2022-07-28T16:06:16.340Z,101121.25
2022-07-28T16:11:18.143Z,101121.81
2022-07-28T16:16:19.999Z,101113.41
2022-07-28T16:21:21.719Z,101130.06
2022-07-28T16:26:26.295Z,101122.50
2022-07-28T16:31:29.124Z,101113.91
2022-07-28T16:36:31.068Z,101112.75
2022-07-28T16:41:46.633Z,101111.16
2022-07-28T16:46:49.944Z,101123.06
2022-07-28T16:51:51.765Z,101131.75
2022-07-28T16:56:55.382Z,101129.22
2022-07-28T17:01:57.429Z,101124.91
2022-07-28T17:06:59.658Z,101119.00
2022-07-28T17:12:01.371Z,101127.94
2022-07-28T17:17:03.112Z,101128.16
2022-07-28T17:22:07.003Z,101126.63
2022-07-28T17:32:30.486Z,101119.63
2022-07-28T17:37:32.205Z,101127.56
2022-07-28T17:42:34.508Z,101116.31
2022-07-28T17:47:36.662Z,101128.22
2022-07-28T17:52:40.147Z,101118.72
2022-07-28T17:57:41.827Z,101130.59
2022-07-28T18:02:43.682Z,101122.84
2022-07-28T18:07:49.613Z,101125.75
2022-07-28T18:12:53.038Z,101129.00
2022-07-28T18:17:56.062Z,101127.78
2022-07-28T18:22:57.914Z,101131.09
2022-07-28T18:27:59.596Z,101131.41
2022-07-28T18:33:04.621Z,101130.16
2022-07-28T18:38:06.285Z,101136.94
2022-07-28T18:43:12.695Z,101146.38
2022-07-28T18:48:14.810Z,101142.25
2022-07-28T18:53:16.518Z,101144.31
2022-07-28T18:58:18.262Z,101139.97
2022-07-28T19:03:20.063Z,101141.91
2022-07-28T19:08:21.824Z,101137.47
2022-07-28T19:13:23.542Z,101145.53
2022-07-28T19:18:25.237Z,101150.75
2022-07-28T19:23:26.912Z,101147.97
2022-07-28T19:28:29.163Z,101154.00
2022-07-28T19:33:31.395Z,101155.47
2022-07-28T19:38:35.768Z,101167.63
2022-07-28T19:43:37.431Z,101172.56
2022-07-28T19:48:39.571Z,101168.66
2022-07-28T19:53:41.576Z,101171.84
2022-07-28T19:58:44.090Z,101190.00
2022-07-28T20:04:01.283Z,101185.09
2022-07-28T20:09:06.530Z,101186.38
2022-07-28T20:14:08.264Z,101192.78
2022-07-28T20:19:09.935Z,101196.69
2022-07-28T20:24:13.361Z,101195.28
2022-07-28T20:29:15.276Z,101199.00
2022-07-28T20:34:17.690Z,101203.75
2022-07-28T20:39:43.346Z,101196.97
2022-07-28T20:44:41.467Z,101203.50
2022-07-28T20:49:43.418Z,101202.84
2022-07-28T20:54:45.141Z,101205.63
2022-07-28T20:59:48.879Z,101201.38
2022-07-28T21:04:51.313Z,101208.59
2022-07-28T21:09:53.057Z,101202.56
2022-07-28T21:14:54.786Z,101204.47
2022-07-28T21:19:56.484Z,101212.50
2022-07-28T21:24:59.078Z,101218.88
2022-07-28T21:30:00.758Z,101212.84
2022-07-28T21:35:02.433Z,101218.28
2022-07-28T21:40:04.368Z,101224.56
2022-07-28T21:45:06.426Z,101224.59
2022-07-28T21:50:13.169Z,101222.09
2022-07-28T21:55:14.915Z,101231.88
2022-07-28T22:00:17.636Z,101244.28
2022-07-28T22:05:19.381Z,101252.31
2022-07-28T22:10:22.872Z,101255.84
2022-07-28T22:15:24.632Z,101253.31
2022-07-28T22:20:26.329Z,101253.34
2022-07-28T22:25:28.053Z,101249.91
2022-07-28T22:30:29.743Z,101256.13
2022-07-28T22:35:31.438Z,101260.63
2022-07-28T22:40:33.156Z,101259.00
2022-07-28T22:45:49.791Z,101273.13
2022-07-28T22:50:53.151Z,101275.81
2022-07-28T22:55:54.853Z,101286.38
2022-07-28T23:00:56.576Z,101293.44
2022-07-28T23:05:59.327Z,101287.31
2022-07-28T23:11:01.086Z,101289.16
2022-07-28T23:16:02.835Z,101288.31
2022-07-28T23:21:04.601Z,101290.13
2022-07-28T23:26:06.478Z,101283.13
2022-07-28T23:31:08.219Z,101289.28
2022-07-28T23:36:26.898Z,101295.47
2022-07-28T23:41:29.714Z,101296.38
2022-07-28T23:46:31.516Z,101289.41
2022-07-28T23:51:47.418Z,101283.25
2022-07-28T23:56:56.410Z,101277.13
